KUG3 WIDD-PGUM
Flight info
| Callsign | KUG3 |
|---|---|
| Flight time | N/A |
| Altitude | 33000 |
| Route | TOMAN1J/04 TOMAN G580 VKG G460 BRU W461 VSN A341 ZAM W10 KLAFU DCT 08N130E 10N136E 11N140E DCT LOEBB A450 UNZ |
| Aircraft | A346/H-SDE2E3FGHIJ3J4J5M1RWXY/LB1D1 |
Departure
| Time | N/A |
|---|---|
| Airport | Hang Nadim International Airport (WIDD) |
Arrival
| Time | 2026-05-07 23:49 |
|---|---|
| Airport | Antonio B. Won Pat International Airport (PGUM) |
| Time | Latitude | Longitude | Altitude | Speed | Heading |
|---|---|---|---|---|---|
| 2026-05-07 22:41 | 5.14428 | 116.91484 | 36870 ft | 484 kts | 61° |
| 2026-05-07 22:42 | 5.17654 | 116.97419 | 36867 ft | 484 kts | 61° |
| 2026-05-07 22:42 | 5.20894 | 117.03380 | 36870 ft | 484 kts | 61° |
| 2026-05-07 22:43 | 5.24120 | 117.09316 | 36865 ft | 484 kts | 61° |
| 2026-05-07 22:43 | 5.30854 | 117.21715 | 36855 ft | 484 kts | 61° |
| 2026-05-07 22:44 | 5.45442 | 117.48602 | 36860 ft | 484 kts | 61° |
| 2026-05-07 22:44 | 5.59429 | 117.74410 | 36858 ft | 483 kts | 61° |
| 2026-05-07 22:45 | 5.73628 | 118.00645 | 36856 ft | 483 kts | 61° |
| 2026-05-07 22:45 | 5.87558 | 118.26406 | 36861 ft | 482 kts | 61° |
| 2026-05-07 22:46 | 6.01730 | 118.53300 | 36842 ft | 482 kts | 67° |
| 2026-05-07 22:46 | 6.10052 | 118.82978 | 36845 ft | 487 kts | 75° |
| 2026-05-07 22:47 | 6.17736 | 119.12704 | 36851 ft | 488 kts | 75° |
| 2026-05-07 22:47 | 6.25471 | 119.42689 | 36854 ft | 488 kts | 75° |
| 2026-05-07 22:48 | 6.33471 | 119.73774 | 36839 ft | 487 kts | 75° |
| 2026-05-07 22:48 | 6.41498 | 120.05047 | 36841 ft | 487 kts | 75° |
| 2026-05-07 22:49 | 6.49387 | 120.35868 | 36854 ft | 488 kts | 75° |
| 2026-05-07 22:49 | 6.57290 | 120.66825 | 36854 ft | 488 kts | 75° |
| 2026-05-07 22:50 | 6.65096 | 120.97446 | 36841 ft | 489 kts | 75° |
| 2026-05-07 22:50 | 6.72826 | 121.27931 | 36850 ft | 490 kts | 75° |
| 2026-05-07 22:51 | 6.80550 | 121.58398 | 36840 ft | 491 kts | 76° |
| 2026-05-07 22:51 | 6.88176 | 121.88632 | 36853 ft | 491 kts | 76° |
| 2026-05-07 22:52 | 6.93973 | 122.18775 | 36858 ft | 490 kts | 83° |
| 2026-05-07 22:52 | 6.97515 | 122.49839 | 36859 ft | 489 kts | 83° |
| 2026-05-07 22:53 | 7.01073 | 122.81186 | 36864 ft | 488 kts | 83° |
| 2026-05-07 22:53 | 7.04605 | 123.12432 | 36856 ft | 486 kts | 84° |
| 2026-05-07 22:54 | 7.08067 | 123.43222 | 36870 ft | 488 kts | 84° |
| 2026-05-07 22:54 | 7.11463 | 123.73589 | 36877 ft | 488 kts | 84° |
| 2026-05-07 22:55 | 7.14936 | 124.04789 | 36875 ft | 490 kts | 84° |
| 2026-05-07 22:55 | 7.18919 | 124.35796 | 36888 ft | 492 kts | 82° |
| 2026-05-07 22:56 | 7.23521 | 124.66845 | 36865 ft | 489 kts | 82° |
| 2026-05-07 22:56 | 7.28026 | 124.97430 | 36897 ft | 491 kts | 82° |
| 2026-05-07 22:57 | 7.32503 | 125.27982 | 36915 ft | 491 kts | 81° |
| 2026-05-07 22:57 | 7.37139 | 125.59510 | 36880 ft | 490 kts | 81° |
| 2026-05-07 22:58 | 7.41931 | 125.92012 | 36898 ft | 488 kts | 81° |
| 2026-05-07 22:58 | 7.46645 | 126.24135 | 36932 ft | 488 kts | 81° |
| 2026-05-07 22:59 | 7.51553 | 126.57743 | 36916 ft | 490 kts | 81° |
| 2026-05-07 22:59 | 7.56536 | 126.92098 | 36889 ft | 491 kts | 81° |
| 2026-05-07 23:00 | 7.61294 | 127.25063 | 36886 ft | 490 kts | 81° |
| 2026-05-07 23:00 | 7.65881 | 127.57010 | 36898 ft | 491 kts | 81° |
| 2026-05-07 23:01 | 7.70420 | 127.88789 | 36885 ft | 492 kts | 81° |
| 2026-05-07 23:01 | 7.75110 | 128.21819 | 36890 ft | 492 kts | 82° |
| 2026-05-07 23:02 | 7.80068 | 128.56932 | 36891 ft | 492 kts | 82° |
| 2026-05-07 23:02 | 7.84812 | 128.90726 | 36893 ft | 493 kts | 82° |
| 2026-05-07 23:03 | 7.89562 | 129.24765 | 36890 ft | 492 kts | 82° |
| 2026-05-07 23:03 | 7.94389 | 129.59559 | 36871 ft | 493 kts | 82° |
| 2026-05-07 23:04 | 7.99312 | 129.95109 | 36887 ft | 492 kts | 80° |
| 2026-05-07 23:04 | 8.09793 | 130.28736 | 36888 ft | 492 kts | 70° |
| 2026-05-07 23:05 | 8.21434 | 130.62808 | 36875 ft | 491 kts | 70° |
| 2026-05-07 23:05 | 8.32909 | 130.96508 | 36876 ft | 491 kts | 70° |
| 2026-05-07 23:06 | 8.44295 | 131.30042 | 36893 ft | 490 kts | 70° |
| 2026-05-07 23:06 | 8.55693 | 131.63721 | 36892 ft | 490 kts | 70° |
| 2026-05-07 23:07 | 8.67224 | 131.97901 | 36871 ft | 490 kts | 70° |
| 2026-05-07 23:07 | 8.78682 | 132.31973 | 36874 ft | 490 kts | 71° |
| 2026-05-07 23:08 | 8.89802 | 132.65152 | 36887 ft | 488 kts | 71° |
| 2026-05-07 23:08 | 9.00817 | 132.98118 | 36888 ft | 487 kts | 71° |
| 2026-05-07 23:09 | 9.11722 | 133.30858 | 36897 ft | 483 kts | 71° |
| 2026-05-07 23:09 | 9.22466 | 133.63235 | 36877 ft | 483 kts | 71° |
| 2026-05-07 23:10 | 9.33414 | 133.96326 | 36877 ft | 485 kts | 71° |
| 2026-05-07 23:10 | 9.44491 | 134.29927 | 36892 ft | 484 kts | 71° |
| 2026-05-07 23:11 | 9.55545 | 134.63571 | 36896 ft | 484 kts | 72° |
| 2026-05-07 23:11 | 9.66356 | 134.96595 | 36891 ft | 484 kts | 72° |
| 2026-05-07 23:12 | 9.75052 | 135.23247 | 36889 ft | 483 kts | 72° |
| 2026-05-07 23:12 | 9.85173 | 135.54356 | 36885 ft | 484 kts | 73° |
| 2026-05-07 23:13 | 9.95490 | 135.86162 | 36885 ft | 487 kts | 73° |
| 2026-05-07 23:13 | 10.04718 | 136.18552 | 36886 ft | 487 kts | 77° |
| 2026-05-07 23:14 | 10.13398 | 136.52492 | 36883 ft | 488 kts | 77° |
| 2026-05-07 23:14 | 10.22087 | 136.86646 | 36886 ft | 492 kts | 77° |
| 2026-05-07 23:15 | 10.30697 | 137.20615 | 36882 ft | 492 kts | 77° |
| 2026-05-07 23:15 | 10.39013 | 137.53573 | 36880 ft | 492 kts | 77° |
| 2026-05-07 23:16 | 10.46978 | 137.85301 | 36876 ft | 493 kts | 77° |
| 2026-05-07 23:16 | 10.55222 | 138.18277 | 36877 ft | 494 kts | 77° |
| 2026-05-07 23:17 | 10.63782 | 138.52678 | 36879 ft | 496 kts | 77° |
| 2026-05-07 23:17 | 10.72005 | 138.85882 | 36876 ft | 495 kts | 77° |
| 2026-05-07 23:18 | 10.79905 | 139.17947 | 36871 ft | 495 kts | 76° |
| 2026-05-07 23:18 | 10.87716 | 139.49775 | 36873 ft | 495 kts | 76° |
| 2026-05-07 23:19 | 10.95411 | 139.81280 | 36872 ft | 496 kts | 76° |
| 2026-05-07 23:19 | 11.05735 | 140.12422 | 36876 ft | 497 kts | 63° |
| 2026-05-07 23:20 | 11.19734 | 140.42158 | 36881 ft | 498 kts | 63° |
| 2026-05-07 23:20 | 11.33975 | 140.72610 | 36886 ft | 494 kts | 63° |
| 2026-05-07 23:21 | 11.48316 | 141.03381 | 36882 ft | 494 kts | 63° |
| 2026-05-07 23:21 | 11.62807 | 141.34576 | 36902 ft | 496 kts | 64° |
| 2026-05-07 23:22 | 11.77197 | 141.65652 | 36900 ft | 493 kts | 64° |
| 2026-05-07 23:22 | 11.91269 | 141.96145 | 36904 ft | 493 kts | 64° |
| 2026-05-07 23:23 | 12.05485 | 142.27057 | 36893 ft | 495 kts | 64° |
| 2026-05-07 23:23 | 12.19769 | 142.58199 | 36917 ft | 495 kts | 65° |
| 2026-05-07 23:24 | 12.36753 | 142.88879 | 36923 ft | 496 kts | 58° |
| 2026-05-07 23:24 | 12.45961 | 143.04295 | 35512 ft | 489 kts | 58° |
| 2026-05-07 23:24 | 12.55253 | 143.19872 | 32588 ft | 485 kts | 58° |
| 2026-05-07 23:24 | 12.64288 | 143.35111 | 29630 ft | 480 kts | 58° |
| 2026-05-07 23:25 | 12.73171 | 143.50140 | 26232 ft | 479 kts | 59° |
| 2026-05-07 23:25 | 12.81956 | 143.65026 | 23746 ft | 459 kts | 61° |
| 2026-05-07 23:25 | 12.85459 | 143.70972 | 22735 ft | 454 kts | 60° |
| 2026-05-07 23:25 | 12.87093 | 143.73749 | 22335 ft | 454 kts | 61° |
| 2026-05-07 23:26 | 12.88720 | 143.76525 | 21951 ft | 453 kts | 61° |
| 2026-05-07 23:26 | 12.90346 | 143.79281 | 21551 ft | 449 kts | 62° |
| 2026-05-07 23:26 | 12.91936 | 143.81983 | 21168 ft | 445 kts | 60° |
| 2026-05-07 23:26 | 12.93533 | 143.84688 | 20764 ft | 441 kts | 62° |
| 2026-05-07 23:27 | 12.96678 | 143.90038 | 19995 ft | 432 kts | 60° |
| 2026-05-07 23:27 | 12.98235 | 143.92680 | 19640 ft | 426 kts | 60° |
| 2026-05-07 23:27 | 12.99757 | 143.95278 | 19265 ft | 423 kts | 61° |
| 2026-05-07 23:28 | 13.01273 | 143.97853 | 18868 ft | 419 kts | 61° |
| 2026-05-07 23:28 | 13.02774 | 144.00409 | 18481 ft | 415 kts | 61° |
| 2026-05-07 23:28 | 13.04259 | 144.02937 | 18035 ft | 411 kts | 60° |
| 2026-05-07 23:28 | 13.05713 | 144.05410 | 17586 ft | 406 kts | 61° |
| 2026-05-07 23:29 | 13.07078 | 144.07740 | 17168 ft | 402 kts | 60° |
| 2026-05-07 23:29 | 13.08524 | 144.10207 | 16722 ft | 398 kts | 61° |
| 2026-05-07 23:29 | 13.09943 | 144.12628 | 16284 ft | 394 kts | 61° |
| 2026-05-07 23:29 | 13.11352 | 144.15033 | 15815 ft | 390 kts | 61° |
| 2026-05-07 23:30 | 13.12742 | 144.17399 | 15393 ft | 386 kts | 62° |
| 2026-05-07 23:30 | 13.14079 | 144.19680 | 14984 ft | 382 kts | 60° |
| 2026-05-07 23:30 | 13.15398 | 144.21933 | 14527 ft | 380 kts | 61° |
| 2026-05-07 23:30 | 13.16757 | 144.24247 | 14112 ft | 376 kts | 61° |
| 2026-05-07 23:31 | 13.18101 | 144.26546 | 13672 ft | 374 kts | 61° |
| 2026-05-07 23:31 | 13.19436 | 144.28827 | 13179 ft | 371 kts | 61° |
| 2026-05-07 23:31 | 13.20762 | 144.31089 | 12748 ft | 366 kts | 61° |
| 2026-05-07 23:31 | 13.22052 | 144.33295 | 12303 ft | 363 kts | 61° |
| 2026-05-07 23:32 | 13.23350 | 144.35512 | 11871 ft | 359 kts | 60° |
| 2026-05-07 23:32 | 13.24648 | 144.37730 | 11448 ft | 356 kts | 61° |
| 2026-05-07 23:32 | 13.25902 | 144.39876 | 11032 ft | 353 kts | 61° |
| 2026-05-07 23:32 | 13.27157 | 144.42016 | 10766 ft | 343 kts | 61° |
| 2026-05-07 23:33 | 13.28359 | 144.44071 | 10661 ft | 329 kts | 61° |
| 2026-05-07 23:33 | 13.29526 | 144.46064 | 10521 ft | 316 kts | 61° |
| 2026-05-07 23:33 | 13.30638 | 144.47963 | 10327 ft | 302 kts | 62° |
| 2026-05-07 23:33 | 13.31682 | 144.49750 | 10219 ft | 279 kts | 62° |
| 2026-05-07 23:34 | 13.32661 | 144.51429 | 10172 ft | 270 kts | 61° |
| 2026-05-07 23:34 | 13.33619 | 144.53067 | 10106 ft | 264 kts | 62° |
| 2026-05-07 23:34 | 13.34559 | 144.54678 | 10027 ft | 261 kts | 62° |
| 2026-05-07 23:34 | 13.35490 | 144.56275 | 9903 ft | 262 kts | 62° |
| 2026-05-07 23:35 | 13.36426 | 144.57878 | 9537 ft | 259 kts | 62° |
| 2026-05-07 23:35 | 13.37345 | 144.59455 | 9226 ft | 255 kts | 62° |
| 2026-05-07 23:35 | 13.38324 | 144.60982 | 8921 ft | 269 kts | 50° |
| 2026-05-07 23:35 | 13.39895 | 144.62094 | 8572 ft | 283 kts | 24° |
| 2026-05-07 23:36 | 13.41862 | 144.62365 | 8236 ft | 293 kts | 358° |
| 2026-05-07 23:36 | 13.43806 | 144.61703 | 7905 ft | 301 kts | 332° |
| 2026-05-07 23:36 | 13.45339 | 144.60209 | 7588 ft | 307 kts | 308° |
| 2026-05-07 23:36 | 13.46462 | 144.58343 | 7263 ft | 307 kts | 302° |
| 2026-05-07 23:37 | 13.47492 | 144.56415 | 6931 ft | 307 kts | 301° |
| 2026-05-07 23:37 | 13.48498 | 144.54488 | 6597 ft | 306 kts | 300° |
| 2026-05-07 23:37 | 13.49487 | 144.52552 | 6246 ft | 305 kts | 296° |
| 2026-05-07 23:37 | 13.49965 | 144.50435 | 5888 ft | 306 kts | 269° |
| 2026-05-07 23:38 | 13.49529 | 144.48311 | 5538 ft | 303 kts | 242° |
| 2026-05-07 23:38 | 13.48287 | 144.46613 | 5202 ft | 296 kts | 218° |
| 2026-05-07 23:38 | 13.46679 | 144.45304 | 4867 ft | 293 kts | 211° |
| 2026-05-07 23:38 | 13.45051 | 144.44089 | 4530 ft | 292 kts | 210° |
| 2026-05-07 23:39 | 13.43377 | 144.42918 | 4174 ft | 288 kts | 201° |
| 2026-05-07 23:39 | 13.41488 | 144.42413 | 3819 ft | 275 kts | 174° |
| 2026-05-07 23:39 | 13.39700 | 144.42840 | 3457 ft | 259 kts | 145° |
| 2026-05-07 23:39 | 13.38383 | 144.44015 | 3138 ft | 248 kts | 124° |
| 2026-05-07 23:40 | 13.37361 | 144.45413 | 2926 ft | 239 kts | 121° |
| 2026-05-07 23:40 | 13.36452 | 144.46758 | 2932 ft | 219 kts | 120° |
| 2026-05-07 23:40 | 13.35626 | 144.48003 | 2926 ft | 201 kts | 115° |
| 2026-05-07 23:40 | 13.35242 | 144.49285 | 2951 ft | 180 kts | 95° |
| 2026-05-07 23:41 | 13.35273 | 144.50507 | 2929 ft | 166 kts | 74° |
| 2026-05-07 23:41 | 13.35680 | 144.51624 | 2984 ft | 167 kts | 68° |
| 2026-05-07 23:41 | 13.36180 | 144.52706 | 2966 ft | 167 kts | 67° |
| 2026-05-07 23:41 | 13.36677 | 144.53751 | 2950 ft | 157 kts | 67° |
| 2026-05-07 23:42 | 13.37126 | 144.54697 | 2895 ft | 142 kts | 68° |
| 2026-05-07 23:42 | 13.37550 | 144.55603 | 2941 ft | 139 kts | 69° |
| 2026-05-07 23:42 | 13.37937 | 144.56444 | 2947 ft | 139 kts | 69° |
| 2026-05-07 23:42 | 13.38359 | 144.57373 | 3001 ft | 146 kts | 67° |
| 2026-05-07 23:43 | 13.38790 | 144.58316 | 2982 ft | 143 kts | 68° |
| 2026-05-07 23:43 | 13.39204 | 144.59231 | 2981 ft | 140 kts | 67° |
| 2026-05-07 23:43 | 13.39615 | 144.60136 | 2980 ft | 139 kts | 68° |
| 2026-05-07 23:43 | 13.40026 | 144.61046 | 2985 ft | 140 kts | 68° |
| 2026-05-07 23:44 | 13.40432 | 144.61944 | 2985 ft | 137 kts | 68° |
| 2026-05-07 23:44 | 13.40828 | 144.62818 | 2983 ft | 137 kts | 69° |
| 2026-05-07 23:44 | 13.41231 | 144.63706 | 2980 ft | 137 kts | 70° |
| 2026-05-07 23:44 | 13.41635 | 144.64604 | 3012 ft | 139 kts | 69° |
| 2026-05-07 23:45 | 13.42041 | 144.65501 | 2872 ft | 138 kts | 69° |
| 2026-05-07 23:45 | 13.42447 | 144.66398 | 2692 ft | 139 kts | 68° |
| 2026-05-07 23:45 | 13.42853 | 144.67298 | 2511 ft | 138 kts | 67° |
| 2026-05-07 23:45 | 13.43259 | 144.68190 | 2326 ft | 137 kts | 68° |
| 2026-05-07 23:46 | 13.43662 | 144.69076 | 2167 ft | 135 kts | 69° |
| 2026-05-07 23:46 | 13.44056 | 144.69948 | 2004 ft | 134 kts | 69° |
| 2026-05-07 23:46 | 13.44449 | 144.70814 | 1802 ft | 133 kts | 68° |
| 2026-05-07 23:46 | 13.44819 | 144.71626 | 1609 ft | 132 kts | 68° |
| 2026-05-07 23:47 | 13.45209 | 144.72490 | 1527 ft | 134 kts | 68° |
| 2026-05-07 23:47 | 13.45606 | 144.73381 | 1515 ft | 137 kts | 68° |
| 2026-05-07 23:47 | 13.45980 | 144.74260 | 1357 ft | 132 kts | 66° |
| 2026-05-07 23:47 | 13.46384 | 144.75114 | 1017 ft | 131 kts | 65° |
| 2026-05-07 23:48 | 13.46791 | 144.75981 | 738 ft | 139 kts | 66° |
| 2026-05-07 23:48 | 13.47213 | 144.76903 | 684 ft | 150 kts | 64° |
| 2026-05-07 23:48 | 13.47651 | 144.77880 | 432 ft | 151 kts | 64° |
| 2026-05-07 23:48 | 13.48087 | 144.78838 | 264 ft | 139 kts | 67° |
| 2026-05-07 23:49 | 13.48436 | 144.79590 | 271 ft | 90 kts | 65° |
| 2026-05-07 23:49 | 13.48627 | 144.80008 | 286 ft | 42 kts | 65° |
| 2026-05-07 23:49 | 13.48715 | 144.80194 | 296 ft | 22 kts | 54° |
| 2026-05-07 23:49 | 13.48829 | 144.80299 | 299 ft | 22 kts | 35° |
| 2026-05-07 23:50 | 13.48862 | 144.80323 | 298 ft | 0 kts | 34° |
| 2026-05-07 23:50 | 13.47510 | 144.77571 | 515 ft | 152 kts | 63° |
| 2026-05-07 23:51 | 13.48862 | 144.80323 | 284 ft | 146 kts | 34° |
| 2026-05-07 23:51 | 13.47756 | 144.78108 | 376 ft | 151 kts | 64° |
| 2026-05-07 23:52 | 13.48862 | 144.80323 | 376 ft | 151 kts | 34° |
| 2026-05-07 23:53 | 13.48081 | 144.78825 | 265 ft | 140 kts | 67° |
| 2026-05-07 23:54 | 13.48150 | 144.78985 | 264 ft | 134 kts | 65° |
| 2026-05-07 23:54 | 13.48059 | 144.78775 | 266 ft | 141 kts | 67° |
| 2026-05-07 23:54 | 13.48862 | 144.80323 | 266 ft | 141 kts | 34° |
| 2026-05-07 23:55 | 13.48094 | 144.78854 | 264 ft | 139 kts | 67° |
| 2026-05-07 23:55 | 13.48862 | 144.80323 | 264 ft | 139 kts | 34° |
| 2026-05-07 23:55 | 13.48172 | 144.79031 | 265 ft | 131 kts | 63° |
| 2026-05-07 23:56 | 13.48862 | 144.80323 | 296 ft | 0 kts | 34° |
| 2026-05-07 23:59 | 13.48869 | 144.80328 | 298 ft | 3 kts | 34° |
| 2026-05-07 23:59 | 13.48898 | 144.80349 | 298 ft | 7 kts | 38° |
| 2026-05-08 00:00 | 13.48905 | 144.80390 | 298 ft | 5 kts | 99° |
| 2026-05-08 00:00 | 13.48898 | 144.80394 | 297 ft | 3 kts | 163° |
| 2026-05-08 00:00 | 13.48877 | 144.80400 | 301 ft | 4 kts | 163° |
| 2026-05-08 00:00 | 13.48846 | 144.80410 | 302 ft | 6 kts | 163° |
| 2026-05-08 00:01 | 13.48802 | 144.80424 | 302 ft | 8 kts | 163° |
| 2026-05-08 00:01 | 13.48746 | 144.80444 | 300 ft | 9 kts | 150° |
| 2026-05-08 00:01 | 13.48690 | 144.80478 | 305 ft | 9 kts | 150° |
| 2026-05-08 00:01 | 13.48633 | 144.80511 | 307 ft | 10 kts | 150° |
| 2026-05-08 00:02 | 13.48571 | 144.80544 | 307 ft | 11 kts | 161° |
| 2026-05-08 00:02 | 13.48488 | 144.80539 | 305 ft | 14 kts | 208° |
| 2026-05-08 00:02 | 13.48425 | 144.80444 | 301 ft | 18 kts | 245° |
| 2026-05-08 00:02 | 13.48365 | 144.80312 | 297 ft | 23 kts | 245° |
| 2026-05-08 00:03 | 13.48294 | 144.80239 | 293 ft | 16 kts | 207° |
| 2026-05-08 00:03 | 13.48232 | 144.80149 | 288 ft | 17 kts | 238° |
| 2026-05-08 00:03 | 13.48152 | 144.80084 | 285 ft | 4 kts | 214° |
| 2026-05-08 00:03 | 13.48114 | 144.80059 | 284 ft | 8 kts | 203° |
| 2026-05-08 00:04 | 13.48047 | 144.80068 | 283 ft | 9 kts | 160° |
| 2026-05-08 00:04 | 13.48007 | 144.80085 | 282 ft | 4 kts | 156° |
| 2026-05-08 00:04 | 13.47979 | 144.80098 | 282 ft | 0 kts | 156° |
| 2026-05-08 00:04 | 13.47974 | 144.80100 | 282 ft | 0 kts | 156° |